createdAt,value
2023-03-23T16:07:27.584Z,27.40
2023-03-23T16:12:29.330Z,12.00
2023-03-23T16:17:31.163Z,26.70
2023-03-23T16:22:32.988Z,25.50
2023-03-23T16:27:35.076Z,43.50
2023-03-23T16:37:37.497Z,28.30
2023-03-23T16:42:39.476Z,8.60
2023-03-23T16:47:42.425Z,7.30
2023-03-23T16:52:47.648Z,23.30
2023-03-23T16:57:49.378Z,9.10
2023-03-23T17:02:52.622Z,7.10
2023-03-23T17:07:55.966Z,6.80
2023-03-23T17:12:58.059Z,6.40
2023-03-23T17:17:59.904Z,7.90
2023-03-23T17:23:02.172Z,7.50
2023-03-23T17:28:05.873Z,7.70
2023-03-23T17:33:09.971Z,8.80
2023-03-23T17:38:11.998Z,19.70
2023-03-23T17:43:13.713Z,19.40
2023-03-23T17:48:15.612Z,25.10
2023-03-23T17:53:18.703Z,26.40
2023-03-23T17:58:20.844Z,38.90
2023-03-23T18:03:24.545Z,55.80
2023-03-23T18:08:26.992Z,46.50
2023-03-23T18:13:31.774Z,40.60
2023-03-23T18:18:34.097Z,32.20
2023-03-23T18:23:46.181Z,34.90
2023-03-23T18:28:56.071Z,36.90
2023-03-23T18:33:58.084Z,27.80
2023-03-23T18:39:00.073Z,26.30
2023-03-23T18:44:01.776Z,36.80
2023-03-23T18:49:04.287Z,46.10
2023-03-23T18:54:06.011Z,32.00
2023-03-23T18:59:07.681Z,25.20
2023-03-23T19:04:09.558Z,29.50
2023-03-23T19:09:12.717Z,47.20
2023-03-23T19:14:14.546Z,31.80
2023-03-23T19:19:16.584Z,36.10
2023-03-23T19:24:18.591Z,20.90
2023-03-23T19:29:26.528Z,22.30
2023-03-23T19:34:30.520Z,33.20
2023-03-23T19:39:33.629Z,39.00
2023-03-23T19:44:36.173Z,27.30
2023-03-23T19:49:39.010Z,28.10
2023-03-23T19:54:41.498Z,25.40
2023-03-23T19:59:44.536Z,23.10
2023-03-23T20:04:46.884Z,22.20
2023-03-23T20:09:48.848Z,17.90
2023-03-23T20:14:50.776Z,14.30
2023-03-23T20:19:52.549Z,11.40
2023-03-23T20:24:54.662Z,9.80
2023-03-23T20:29:57.024Z,8.90
2023-03-23T20:35:06.405Z,9.00
2023-03-23T20:40:14.478Z,9.00
2023-03-23T20:45:18.438Z,7.90
2023-03-23T20:50:20.310Z,7.50
2023-03-23T20:55:22.069Z,8.70
2023-03-23T21:00:23.787Z,9.50
2023-03-23T21:05:25.811Z,13.50
2023-03-23T21:10:28.520Z,12.60
2023-03-23T21:15:31.275Z,8.60
2023-03-23T21:20:34.119Z,10.30
2023-03-23T21:25:36.982Z,9.50
2023-03-23T21:30:45.348Z,7.90
2023-03-23T21:35:47.326Z,7.80
2023-03-23T21:40:49.410Z,8.60
2023-03-23T21:45:55.963Z,6.70
2023-03-23T21:50:57.677Z,6.50
2023-03-23T21:55:59.535Z,5.30
2023-03-23T22:01:02.232Z,4.40
2023-03-23T22:06:18.333Z,4.10
2023-03-23T22:11:24.605Z,5.10
2023-03-23T22:16:28.923Z,5.50
2023-03-23T22:21:31.492Z,6.10
2023-03-23T22:26:33.718Z,6.50
2023-03-23T22:31:39.677Z,6.60
2023-03-23T22:36:42.279Z,7.40
2023-03-23T22:41:44.948Z,8.30
2023-03-23T22:46:48.825Z,6.70
2023-03-23T22:51:51.644Z,6.60
2023-03-23T22:56:53.509Z,6.80
2023-03-23T23:01:55.762Z,5.80
2023-03-23T23:07:06.686Z,5.90
2023-03-23T23:12:15.231Z,5.60
2023-03-23T23:17:17.119Z,5.40
2023-03-23T23:22:19.600Z,5.00
2023-03-23T23:27:21.592Z,5.10
2023-03-23T23:32:23.395Z,5.10
2023-03-23T23:37:25.306Z,5.10
2023-03-23T23:42:27.178Z,5.50
2023-03-23T23:47:29.261Z,5.20
2023-03-23T23:52:30.990Z,4.90
2023-03-23T23:57:33.434Z,7.10
